Terminal Aerodrome Forecast
Issued by NWS Sioux Falls, SD

Home | Current Version | Previous Version | Text Only | Print | Product List | Glossary Off
Versions: 1 2 3 4 5 6 7 8 9 10 11 12 13 14 15 16 17 18 19 20

000
FTUS43 KFSD 211120
TAFFSD
TAF
KFSD 211120Z 2112/2212 13005KT P6SM SKC
     FM211500 15012KT P6SM SKC
     FM211800 16014G20KT P6SM SKC
     FM221000 16015G22KT P6SM BKN030=

USA.gov is the U.S. government's official web portal to all federal, state and local government web resources and services.